Time;durP1;ratioP1;P1;durP2;ratioP2;P2;SDS_P1;SDS_P2;PMS_P1;PMS_P2;Temp;Humidity;BMP_temperature;BMP_pressure;BME280_temperature;BME280_humidity;BME280_pressure;Samples;Min_cycle;Max_cycle;Signal;HPM_P1;HPM_P2
2022/01/29 00:00:41;;;;;;;24.30;3.80;;;3.40;99.90;;;;;;4903979;29;20041;-68
2022/01/29 00:03:06;;;;;;;28.65;3.10;;;3.40;99.90;;;;;;4900828;29;20035;-67
2022/01/29 00:05:32;;;;;;;27.05;3.83;;;3.40;99.90;;;;;;4898735;29;20037;-68
2022/01/29 00:07:57;;;;;;;27.75;3.97;;;3.50;99.90;;;;;;4900452;29;20476;-67
2022/01/29 00:10:23;;;;;;;23.15;3.50;;;3.50;99.90;;;;;;4895881;29;20060;-68
2022/01/29 00:12:48;;;;;;;30.55;3.50;;;3.50;99.90;;;;;;4904509;29;20111;-67
2022/01/29 00:15:14;;;;;;;37.03;4.00;;;3.50;99.90;;;;;;4906511;29;20047;-68
2022/01/29 00:17:40;;;;;;;25.60;2.97;;;3.50;99.90;;;;;;4904226;29;20032;-67
2022/01/29 00:20:05;;;;;;;30.27;4.50;;;3.50;99.90;;;;;;4905045;29;20107;-68
2022/01/29 00:22:31;;;;;;;28.23;3.20;;;3.60;99.90;;;;;;4903172;29;20492;-68
2022/01/29 00:24:57;;;;;;;23.55;3.58;;;3.60;99.90;;;;;;4910387;29;20028;-68
2022/01/29 00:27:25;;;;;;;32.90;4.32;;;3.60;99.90;;;;;;4901860;29;20044;-68
2022/01/29 00:29:50;;;;;;;26.45;3.10;;;3.60;99.90;;;;;;4904714;29;20024;-68
2022/01/29 00:32:15;;;;;;;27.50;3.67;;;3.60;99.90;;;;;;4901110;29;20456;-68
2022/01/29 00:34:41;;;;;;;28.52;4.50;;;3.70;99.90;;;;;;4905039;29;20114;-67
2022/01/29 00:37:06;;;;;;;34.90;4.32;;;3.60;99.90;;;;;;4905858;29;20043;-67
2022/01/29 00:39:32;;;;;;;23.67;3.67;;;3.60;99.90;;;;;;4897791;29;20457;-67
2022/01/29 00:41:57;;;;;;;23.15;3.78;;;3.70;99.90;;;;;;4899891;29;20066;-67
2022/01/29 00:44:23;;;;;;;31.42;3.67;;;3.70;99.90;;;;;;4898852;29;20033;-68
2022/01/29 00:46:48;;;;;;;32.95;4.78;;;3.70;99.90;;;;;;4911331;29;20444;-67
2022/01/29 00:49:14;;;;;;;29.13;4.55;;;3.70;99.90;;;;;;4909731;29;20119;-67
2022/01/29 00:51:39;;;;;;;25.38;3.30;;;3.70;99.90;;;;;;4907667;29;20039;-68
2022/01/29 00:54:05;;;;;;;25.13;3.72;;;3.70;99.90;;;;;;4907542;29;20550;-68
2022/01/29 00:56:30;;;;;;;26.92;4.22;;;3.70;99.90;;;;;;4904689;29;20044;-67
2022/01/29 00:58:56;;;;;;;23.10;3.67;;;3.70;99.90;;;;;;4908313;29;20030;-68
2022/01/29 01:01:21;;;;;;;40.10;4.95;;;3.70;99.90;;;;;;4902577;29;20976;-68
2022/01/29 01:03:46;;;;;;;29.00;3.45;;;3.70;99.90;;;;;;4907193;29;20032;-68
2022/01/29 01:06:12;;;;;;;21.77;4.22;;;3.80;99.90;;;;;;4907778;29;20036;-68
2022/01/29 01:08:37;;;;;;;30.05;4.03;;;3.80;99.90;;;;;;4909873;29;20028;-68
2022/01/29 01:11:04;;;;;;;28.00;3.70;;;3.80;99.90;;;;;;4909883;29;20079;-68
2022/01/29 01:13:29;;;;;;;26.05;3.78;;;3.80;99.90;;;;;;4909243;29;20072;-68
2022/01/29 01:15:55;;;;;;;21.85;4.45;;;3.80;99.90;;;;;;4908217;29;20071;-69
2022/01/29 01:18:20;;;;;;;23.17;3.38;;;3.80;99.90;;;;;;4908852;29;20036;-68
2022/01/29 01:20:46;;;;;;;24.55;4.38;;;3.80;99.90;;;;;;4908218;29;20547;-68
2022/01/29 01:23:11;;;;;;;30.85;4.47;;;3.80;99.90;;;;;;4909683;29;20040;-69
2022/01/29 01:25:37;;;;;;;31.85;3.75;;;3.70;99.90;;;;;;4906307;29;20032;-68
2022/01/29 01:28:02;;;;;;;62.33;17.45;;;3.70;99.90;;;;;;4907849;29;20377;-68
2022/01/29 01:30:28;;;;;;;32.10;5.15;;;3.70;99.90;;;;;;4904834;29;20036;-68
2022/01/29 01:32:53;;;;;;;23.02;3.45;;;3.70;99.90;;;;;;4903950;29;20031;-69
2022/01/29 01:35:27;;;;;;;20.45;3.35;;;3.70;99.90;;;;;;4903075;29;20103;-69
2022/01/29 01:38:09;;;;;;;28.30;3.17;;;3.60;99.90;;;;;;4907568;29;20035;-69
2022/01/29 01:40:36;;;;;;;19.45;2.80;;;3.60;99.90;;;;;;4902281;29;20111;-68
2022/01/29 01:43:01;;;;;;;26.55;4.10;;;3.60;99.90;;;;;;4907080;29;20071;-68
2022/01/29 01:45:27;;;;;;;27.38;3.22;;;3.60;99.90;;;;;;4902109;29;20071;-68
2022/01/29 01:47:52;;;;;;;24.77;4.30;;;3.60;99.90;;;;;;4904083;29;20079;-67
2022/01/29 01:50:18;;;;;;;29.35;3.78;;;3.60;99.90;;;;;;4905531;29;20036;-68
2022/01/29 01:52:43;;;;;;;27.88;3.85;;;3.60;99.90;;;;;;4892856;29;20016;-68
2022/01/29 01:55:09;;;;;;;26.05;3.60;;;3.60;99.90;;;;;;4903477;29;20659;-68
2022/01/29 01:57:34;;;;;;;26.63;3.30;;;3.60;99.90;;;;;;4906722;29;20063;-68
2022/01/29 02:00:01;;;;;;;19.08;3.67;;;3.60;99.90;;;;;;4907546;29;20047;-68
2022/01/29 02:02:26;;;;;;;26.15;3.08;;;3.60;99.90;;;;;;4901190;29;20044;-69
2022/01/29 02:04:52;;;;;;;37.58;4.95;;;3.50;99.90;;;;;;4908493;29;20046;-68
2022/01/29 02:07:17;;;;;;;39.33;5.63;;;3.50;99.90;;;;;;4899697;29;20020;-69
2022/01/29 02:09:43;;;;;;;28.27;5.20;;;3.40;99.90;;;;;;4902079;29;20033;-70
2022/01/29 02:12:09;;;;;;;21.70;5.00;;;3.30;99.90;;;;;;4900927;29;20115;-70
2022/01/29 02:14:35;;;;;;;43.47;6.22;;;3.30;99.90;;;;;;4901312;29;20048;-70
2022/01/29 02:17:00;;;;;;;30.08;4.18;;;3.20;99.90;;;;;;4902792;29;20044;-70
2022/01/29 02:19:26;;;;;;;32.45;4.90;;;3.20;99.90;;;;;;4908596;29;20044;-70
2022/01/29 02:21:51;;;;;;;24.05;3.72;;;3.20;99.90;;;;;;4907582;29;20171;-69
2022/01/29 02:24:17;;;;;;;27.52;3.60;;;3.10;99.90;;;;;;4905197;29;20052;-69
2022/01/29 02:26:42;;;;;;;27.52;4.28;;;3.20;99.90;;;;;;4901997;29;20518;-70
2022/01/29 02:29:08;;;;;;;25.70;3.78;;;3.10;99.90;;;;;;4899814;29;20035;-70
2022/01/29 02:31:33;;;;;;;33.40;4.55;;;3.10;99.90;;;;;;4903491;29;20113;-70
2022/01/29 02:33:59;;;;;;;27.15;4.18;;;3.10;99.90;;;;;;4907963;29;20035;-72
2022/01/29 02:36:24;;;;;;;31.60;4.68;;;3.10;99.90;;;;;;4908109;29;20036;-66
2022/01/29 02:38:50;;;;;;;29.48;3.90;;;3.10;99.90;;;;;;4908012;29;20028;-68
2022/01/29 02:41:15;;;;;;;29.30;5.20;;;3.10;99.90;;;;;;4908990;29;20032;-67
2022/01/29 02:46:54;;;;;;;28.83;3.75;;;3.10;99.90;;;;;;4912372;29;20105;-68
2022/01/29 02:48:57;;;;;;;27.50;4.40;;;3.10;99.90;;;;;;4902093;29;20504;-68
2022/01/29 02:51:22;;;;;;;24.65;4.32;;;3.10;99.90;;;;;;4907448;29;20131;-63
2022/01/29 02:53:48;;;;;;;38.90;5.22;;;3.00;99.90;;;;;;4908580;29;20123;-64
2022/01/29 02:56:13;;;;;;;19.73;4.15;;;3.10;99.90;;;;;;4908440;29;20032;-63
2022/01/29 02:58:38;;;;;;;25.67;4.63;;;3.10;99.90;;;;;;4907191;29;20044;-63
2022/01/29 03:01:04;;;;;;;20.77;4.03;;;3.10;99.90;;;;;;4907004;29;20039;-63
2022/01/29 03:03:29;;;;;;;30.33;5.35;;;3.10;99.90;;;;;;4906772;29;20063;-63
2022/01/29 03:05:55;;;;;;;27.30;5.93;;;3.10;99.90;;;;;;4907819;29;20437;-63
2022/01/29 03:08:20;;;;;;;33.75;6.18;;;3.10;99.90;;;;;;4906433;29;20090;-63
2022/01/29 03:10:49;;;;;;;29.65;4.70;;;3.10;99.90;;;;;;4906677;29;20056;-63
2022/01/29 03:13:15;;;;;;;26.67;4.78;;;3.10;99.90;;;;;;4906543;29;20123;-63
2022/01/29 03:15:40;;;;;;;22.70;6.60;;;3.10;99.90;;;;;;4905666;29;20576;-63
2022/01/29 03:18:06;;;;;;;29.75;6.38;;;3.10;99.90;;;;;;4906644;29;20393;-63
2022/01/29 03:20:31;;;;;;;23.60;5.20;;;3.20;99.90;;;;;;4908678;29;20098;-64
2022/01/29 03:22:57;;;;;;;23.50;5.80;;;3.10;99.90;;;;;;4889824;29;20373;-63
2022/01/29 03:25:22;;;;;;;33.20;6.10;;;3.10;99.90;;;;;;4907305;29;20374;-63
2022/01/29 03:27:48;;;;;;;25.52;5.45;;;3.10;99.90;;;;;;4905937;29;20024;-63
2022/01/29 03:30:13;;;;;;;21.95;6.13;;;3.10;99.90;;;;;;4904512;29;20627;-63
2022/01/29 03:32:39;;;;;;;23.80;5.85;;;3.00;99.90;;;;;;4906762;29;20492;-63
2022/01/29 03:35:04;;;;;;;35.83;6.65;;;3.10;99.90;;;;;;4907701;29;20091;-63
2022/01/29 03:37:30;;;;;;;27.25;6.30;;;3.10;99.90;;;;;;4905534;29;20068;-63
2022/01/29 03:40:00;;;;;;;29.17;7.22;;;3.10;99.90;;;;;;4908548;29;20488;-63
2022/01/29 03:42:26;;;;;;;27.92;7.32;;;3.10;99.90;;;;;;4905627;29;20130;-63
2022/01/29 03:44:52;;;;;;;41.17;8.77;;;3.10;99.90;;;;;;4903980;29;20039;-63
2022/01/29 03:47:17;;;;;;;31.58;8.38;;;3.10;99.90;;;;;;4908982;29;20036;-63
2022/01/29 03:49:43;;;;;;;39.58;8.43;;;3.10;99.90;;;;;;4903622;29;20027;-63
2022/01/29 03:52:08;;;;;;;34.33;8.30;;;3.10;99.90;;;;;;4904817;29;20827;-63
2022/01/29 03:54:34;;;;;;;38.20;8.07;;;3.10;99.90;;;;;;4901972;29;20045;-63
2022/01/29 03:56:59;;;;;;;32.72;8.38;;;3.20;99.90;;;;;;4905390;29;20032;-63
2022/01/29 03:59:25;;;;;;;38.28;8.75;;;3.20;99.90;;;;;;4904777;29;20047;-63
2022/01/29 04:01:50;;;;;;;37.22;8.45;;;3.20;99.90;;;;;;4907137;29;20039;-63
2022/01/29 04:04:16;;;;;;;40.63;8.15;;;3.20;99.90;;;;;;4904385;29;20040;-63
2022/01/29 04:06:41;;;;;;;44.72;9.43;;;3.20;99.90;;;;;;4902583;29;20051;-63
2022/01/29 04:09:10;;;;;;;47.40;7.63;;;3.20;99.90;;;;;;4906386;29;20062;-62
2022/01/29 04:11:37;;;;;;;38.20;7.97;;;3.20;99.90;;;;;;4901591;29;20085;-63
2022/01/29 04:14:03;;;;;;;35.30;7.90;;;3.20;99.90;;;;;;4902855;29;20123;-63
2022/01/29 04:16:28;;;;;;;31.80;8.68;;;3.20;99.90;;;;;;4902149;29;20088;-62
2022/01/29 04:18:54;;;;;;;31.52;8.43;;;3.30;99.90;;;;;;4903287;29;20036;-63
2022/01/29 04:21:19;;;;;;;23.83;7.15;;;3.30;99.90;;;;;;4898849;29;20630;-63
2022/01/29 04:23:45;;;;;;;38.80;8.48;;;3.30;99.90;;;;;;4902299;29;20035;-62
2022/01/29 04:26:10;;;;;;;41.45;7.78;;;3.30;99.90;;;;;;4901083;29;20619;-63
2022/01/29 04:28:40;;;;;;;39.95;8.20;;;3.30;99.90;;;;;;4902252;29;20039;-63
2022/01/29 04:31:11;;;;;;;35.05;8.13;;;3.30;99.90;;;;;;4901022;29;20028;-62
2022/01/29 04:33:37;;;;;;;29.42;7.80;;;3.30;99.90;;;;;;4900660;29;20119;-62
2022/01/29 04:36:03;;;;;;;35.70;8.00;;;3.30;99.90;;;;;;4889997;29;20508;-63
2022/01/29 04:38:28;;;;;;;29.02;7.60;;;3.30;99.90;;;;;;4898675;29;20041;-63
2022/01/29 04:40:54;;;;;;;29.27;9.32;;;3.30;99.90;;;;;;4897176;29;20051;-63
2022/01/29 04:43:19;;;;;;;35.28;8.95;;;3.30;99.90;;;;;;4900580;29;20083;-62
2022/01/29 04:45:45;;;;;;;28.23;7.47;;;3.30;99.90;;;;;;4900636;29;20475;-62
2022/01/29 04:48:10;;;;;;;31.10;10.40;;;3.20;99.90;;;;;;4898999;29;20102;-62
2022/01/29 04:50:36;;;;;;;37.35;9.25;;;3.30;99.90;;;;;;4903578;29;20091;-63
2022/01/29 04:53:01;;;;;;;24.92;8.50;;;3.20;99.90;;;;;;4905265;29;20028;-62
2022/01/29 04:55:27;;;;;;;36.55;9.18;;;3.20;99.90;;;;;;4897397;29;20068;-62
2022/01/29 04:57:52;;;;;;;33.10;8.98;;;3.20;99.90;;;;;;4900120;29;20452;-62
2022/01/29 05:00:21;;;;;;;34.50;9.73;;;3.20;99.90;;;;;;4896786;29;20024;-62
2022/01/29 05:02:46;;;;;;;35.83;9.20;;;3.20;99.90;;;;;;4899502;29;20063;-63
2022/01/29 05:05:12;;;;;;;35.60;9.40;;;3.20;99.90;;;;;;4902895;29;20131;-63
2022/01/29 05:07:37;;;;;;;29.60;8.40;;;3.20;99.90;;;;;;4898860;29;20112;-63
2022/01/29 05:10:03;;;;;;;31.50;9.18;;;3.20;99.90;;;;;;4903753;29;20095;-63
2022/01/29 05:12:30;;;;;;;33.53;9.13;;;3.20;99.90;;;;;;4896627;29;20088;-63
2022/01/29 05:15:15;;;;;;;31.33;9.93;;;3.30;99.90;;;;;;4899043;29;20124;-63
2022/01/29 05:28:38;;;;;;;28.45;9.88;;;3.20;99.90;;;;;;4908809;29;19915;-63
2022/01/29 05:31:04;;;;;;;32.75;9.45;;;3.40;99.90;;;;;;4905767;29;20461;-63
2022/01/29 05:33:29;;;;;;;31.02;10.23;;;3.20;99.90;;;;;;4907096;29;20044;-62
2022/01/29 05:35:55;;;;;;;34.40;10.13;;;3.30;99.90;;;;;;4909816;29;20036;-63
2022/01/29 05:38:20;;;;;;;31.42;11.35;;;3.30;99.90;;;;;;4909126;29;20032;-63
2022/01/29 05:40:46;;;;;;;35.97;10.43;;;3.30;99.90;;;;;;4908802;29;20083;-64
2022/01/29 05:43:11;;;;;;;29.58;10.45;;;3.20;99.90;;;;;;4908675;29;20024;-63
2022/01/29 05:45:37;;;;;;;26.65;9.63;;;3.30;99.90;;;;;;4910197;29;20039;-63
2022/01/29 05:48:02;;;;;;;27.65;10.13;;;3.20;99.90;;;;;;4910328;29;20090;-63
2022/01/29 05:50:28;;;;;;;27.67;9.70;;;3.30;99.90;;;;;;4906817;29;20040;-63
2022/01/29 05:52:53;;;;;;;30.95;9.40;;;3.30;99.90;;;;;;4908809;29;20047;-63
2022/01/29 05:55:19;;;;;;;32.50;10.13;;;3.30;99.90;;;;;;4907307;29;20143;-63
2022/01/29 05:57:44;;;;;;;29.55;11.65;;;3.30;99.90;;;;;;4907015;29;20050;-63
2022/01/29 06:00:10;;;;;;;32.33;9.70;;;3.30;99.90;;;;;;4903408;29;20052;-63
2022/01/29 06:02:41;;;;;;;35.17;10.77;;;3.30;99.90;;;;;;4915114;29;20051;-63
2022/01/29 06:05:07;;;;;;;26.33;10.27;;;3.30;99.90;;;;;;4906840;29;20025;-63
2022/01/29 06:07:32;;;;;;;29.63;10.88;;;3.30;99.90;;;;;;4907014;29;20144;-64
2022/01/29 06:09:57;;;;;;;31.13;11.02;;;3.40;99.90;;;;;;4906907;29;20035;-63
2022/01/29 06:12:24;;;;;;;33.00;11.25;;;3.40;99.90;;;;;;4908418;29;20036;-63
2022/01/29 06:14:50;;;;;;;30.70;10.85;;;3.40;99.90;;;;;;4906858;29;20088;-64
2022/01/29 06:17:15;;;;;;;30.67;10.57;;;3.40;99.90;;;;;;4905812;29;20129;-63
2022/01/29 06:19:41;;;;;;;31.20;11.95;;;3.40;99.90;;;;;;4907965;29;20393;-63
2022/01/29 06:22:10;;;;;;;28.77;11.18;;;3.40;99.90;;;;;;4906038;29;20036;-63
2022/01/29 06:24:36;;;;;;;30.35;11.23;;;3.40;99.90;;;;;;4904495;29;20496;-63
2022/01/29 06:27:01;;;;;;;30.38;11.52;;;3.40;99.90;;;;;;4906049;29;20032;-63
2022/01/29 06:29:27;;;;;;;26.63;11.63;;;3.40;99.90;;;;;;4905948;29;20032;-63
2022/01/29 06:31:52;;;;;;;32.40;11.57;;;3.40;99.90;;;;;;4905880;29;20485;-63
2022/01/29 06:34:18;;;;;;;32.10;11.13;;;3.40;99.90;;;;;;4903880;29;20156;-64
2022/01/29 06:36:43;;;;;;;26.67;10.70;;;3.40;99.90;;;;;;4907742;29;20499;-64
2022/01/29 06:39:09;;;;;;;27.38;10.90;;;3.40;99.90;;;;;;4907715;29;20139;-63
2022/01/29 06:41:34;;;;;;;28.63;11.07;;;3.40;99.90;;;;;;4905912;29;20037;-63
2022/01/29 06:44:00;;;;;;;31.63;11.65;;;3.40;99.90;;;;;;4904720;29;20115;-63
2022/01/29 06:46:25;;;;;;;25.38;12.40;;;3.40;99.90;;;;;;4905822;29;20049;-63
2022/01/29 06:48:52;;;;;;;23.70;10.43;;;3.50;99.90;;;;;;4905007;29;20023;-63
2022/01/29 06:51:17;;;;;;;29.70;11.02;;;3.50;99.90;;;;;;4903028;29;20043;-63
2022/01/29 06:53:43;;;;;;;31.50;11.48;;;3.50;99.90;;;;;;4904364;29;20392;-64
2022/01/29 06:56:08;;;;;;;27.08;11.65;;;3.50;99.90;;;;;;4903754;29;20047;-63
2022/01/29 06:58:34;;;;;;;33.70;11.35;;;3.50;99.90;;;;;;4903132;29;20040;-64
2022/01/29 07:01:00;;;;;;;32.00;11.98;;;3.50;99.90;;;;;;4907473;29;20075;-63
2022/01/29 07:03:25;;;;;;;38.15;14.35;;;3.50;99.90;;;;;;4901193;29;20043;-63
2022/01/29 07:05:50;;;;;;;35.53;14.05;;;3.50;99.90;;;;;;4907780;29;20559;-63
2022/01/29 07:08:16;;;;;;;28.60;16.17;;;3.60;99.90;;;;;;4901631;29;20032;-63
2022/01/29 07:10:44;;;;;;;30.52;14.00;;;3.50;99.90;;;;;;4902120;29;20040;-63
2022/01/29 07:13:09;;;;;;;33.22;12.18;;;3.50;99.90;;;;;;4904765;29;20071;-63
2022/01/29 07:15:34;;;;;;;34.80;12.65;;;3.50;99.90;;;;;;4901891;29;20500;-63
2022/01/29 07:18:00;;;;;;;25.00;12.13;;;3.50;99.90;;;;;;4890914;29;20028;-63
2022/01/29 07:20:25;;;;;;;30.90;13.50;;;3.60;99.90;;;;;;4899596;29;20131;-63
2022/01/29 07:22:51;;;;;;;32.22;12.35;;;3.60;99.90;;;;;;4902273;29;20032;-63
2022/01/29 07:25:16;;;;;;;33.60;16.27;;;3.60;99.90;;;;;;4900246;29;20637;-63
2022/01/29 07:27:42;;;;;;;45.60;18.67;;;3.60;99.90;;;;;;4902359;29;20032;-63
2022/01/29 07:30:07;;;;;;;36.45;15.20;;;3.60;99.90;;;;;;4900115;29;20032;-63
2022/01/29 07:32:33;;;;;;;40.63;17.05;;;3.70;99.90;;;;;;4899899;29;20040;-63
2022/01/29 07:34:59;;;;;;;31.05;13.93;;;3.70;99.90;;;;;;4905410;29;20044;-63
2022/01/29 07:37:24;;;;;;;42.00;17.38;;;3.70;99.90;;;;;;4898429;29;20301;-64
2022/01/29 07:39:50;;;;;;;30.15;14.65;;;3.70;99.90;;;;;;4900415;29;20421;-63
2022/01/29 07:42:15;;;;;;;30.60;13.45;;;3.70;99.90;;;;;;4905876;29;20032;-64
2022/01/29 07:44:41;;;;;;;34.38;14.65;;;3.80;99.90;;;;;;4905238;29;20028;-63
2022/01/29 07:47:06;;;;;;;32.10;14.68;;;3.80;99.90;;;;;;4905084;29;20040;-63
2022/01/29 07:49:32;;;;;;;33.78;14.90;;;3.80;99.90;;;;;;4900707;29;20037;-63
2022/01/29 07:51:57;;;;;;;33.83;14.77;;;3.80;99.90;;;;;;4906088;29;20123;-63
2022/01/29 07:54:23;;;;;;;31.80;14.68;;;3.90;99.90;;;;;;4903991;29;20033;-63
2022/01/29 07:56:48;;;;;;;34.83;13.77;;;3.90;99.90;;;;;;4899981;29;20028;-63
2022/01/29 07:59:14;;;;;;;29.70;13.57;;;3.90;99.90;;;;;;4897995;29;20035;-63
2022/01/29 08:01:39;;;;;;;33.42;14.07;;;3.90;99.90;;;;;;4905065;29;20041;-63
2022/01/29 08:04:05;;;;;;;27.20;13.38;;;4.00;99.90;;;;;;4907758;29;20036;-63
2022/01/29 08:06:30;;;;;;;31.83;14.35;;;4.00;99.90;;;;;;4907572;29;20552;-63
2022/01/29 08:08:56;;;;;;;30.02;14.32;;;4.00;99.90;;;;;;4907682;29;20024;-63
2022/01/29 08:11:22;;;;;;;27.45;14.15;;;4.10;99.90;;;;;;4906661;29;20107;-63
2022/01/29 08:13:47;;;;;;;30.70;13.05;;;4.10;99.90;;;;;;4905926;29;20100;-63
2022/01/29 08:16:13;;;;;;;33.35;14.43;;;4.10;99.90;;;;;;4906660;29;20040;-63
2022/01/29 08:18:39;;;;;;;30.27;13.63;;;4.20;99.90;;;;;;4905539;29;20086;-63
2022/01/29 08:21:04;;;;;;;29.80;13.77;;;4.20;99.90;;;;;;4906127;29;20070;-63
2022/01/29 08:23:30;;;;;;;31.52;13.98;;;4.20;99.90;;;;;;4909731;29;20032;-63
2022/01/29 08:25:55;;;;;;;32.60;14.50;;;4.30;99.90;;;;;;4906630;29;20063;-63
2022/01/29 08:28:21;;;;;;;30.70;15.05;;;4.30;99.90;;;;;;4906979;29;20031;-63
2022/01/29 08:30:46;;;;;;;31.25;14.48;;;4.40;99.90;;;;;;4912201;29;20043;-64
2022/01/29 08:33:17;;;;;;;40.72;17.27;;;4.40;99.90;;;;;;4906395;29;20020;-63
2022/01/29 08:35:42;;;;;;;32.05;15.75;;;4.40;99.90;;;;;;4905317;29;20493;-64
2022/01/29 08:38:08;;;;;;;37.60;17.90;;;4.50;99.90;;;;;;4909905;29;20068;-64
2022/01/29 08:40:33;;;;;;;47.95;18.98;;;4.50;99.90;;;;;;4908182;29;20036;-64
2022/01/29 08:42:59;;;;;;;34.38;15.70;;;4.50;99.90;;;;;;4906132;29;20038;-64
2022/01/29 08:45:24;;;;;;;34.20;15.48;;;4.70;99.90;;;;;;4904437;29;20409;-62
2022/01/29 08:47:50;;;;;;;29.38;15.48;;;4.60;99.90;;;;;;4905555;29;20040;-64
2022/01/29 08:50:15;;;;;;;32.05;15.70;;;4.70;99.90;;;;;;4905754;29;20036;-65
2022/01/29 08:52:41;;;;;;;36.42;15.35;;;4.70;99.90;;;;;;4904234;29;20043;-64
2022/01/29 08:55:06;;;;;;;39.10;17.55;;;4.90;99.90;;;;;;4905050;29;20024;-64
2022/01/29 08:57:32;;;;;;;34.10;15.32;;;4.80;99.90;;;;;;4903308;29;20458;-64
2022/01/29 08:59:57;;;;;;;33.40;14.68;;;4.80;99.90;;;;;;4904520;29;20069;-63
2022/01/29 09:02:23;;;;;;;31.15;14.80;;;4.80;99.90;;;;;;4902416;29;20492;-65
2022/01/29 09:04:48;;;;;;;33.20;16.00;;;4.90;99.90;;;;;;4906270;29;20032;-64
2022/01/29 09:07:13;;;;;;;36.67;15.77;;;4.90;99.90;;;;;;4905345;29;20120;-64
2022/01/29 09:09:43;;;;;;;33.55;14.95;;;4.90;99.90;;;;;;4907735;29;20766;-65
2022/01/29 09:12:09;;;;;;;29.80;14.52;;;5.00;99.90;;;;;;4905588;29;20054;-64
2022/01/29 09:14:34;;;;;;;38.28;14.70;;;5.00;99.90;;;;;;4919742;29;20500;-64
2022/01/29 09:17:00;;;;;;;35.85;16.20;;;5.00;99.90;;;;;;4906804;29;20039;-64
2022/01/29 09:19:25;;;;;;;33.45;15.95;;;5.10;99.90;;;;;;4904333;29;20042;-64
2022/01/29 09:21:51;;;;;;;34.95;16.15;;;5.10;99.90;;;;;;4908204;29;20028;-64
2022/01/29 09:24:16;;;;;;;35.65;16.77;;;5.10;99.90;;;;;;4904919;29;20067;-64
2022/01/29 09:26:42;;;;;;;37.08;17.08;;;5.10;99.90;;;;;;4903800;29;20040;-64
2022/01/29 09:29:07;;;;;;;125.90;53.35;;;5.10;99.90;;;;;;4905900;29;20489;-64
2022/01/29 09:31:32;;;;;;;44.13;18.08;;;5.40;99.90;;;;;;4908022;29;20044;-64
2022/01/29 09:33:58;;;;;;;37.80;17.67;;;5.20;99.90;;;;;;4906103;29;20040;-63
2022/01/29 09:36:23;;;;;;;48.10;18.52;;;5.20;99.90;;;;;;4904171;29;20040;-64
2022/01/29 09:38:49;;;;;;;41.03;18.45;;;5.30;99.90;;;;;;4909551;29;20029;-64
2022/01/29 09:41:14;;;;;;;42.38;17.38;;;5.30;99.90;;;;;;4909202;29;20417;-64
2022/01/29 09:43:42;;;;;;;52.60;18.50;;;5.30;99.90;;;;;;4904733;29;20048;-64
2022/01/29 09:46:08;;;;;;;51.35;20.60;;;5.40;99.90;;;;;;4904615;29;20043;-64
2022/01/29 09:48:33;;;;;;;45.55;19.23;;;5.40;99.90;;;;;;4902467;29;20033;-65
2022/01/29 09:50:59;;;;;;;41.97;18.52;;;5.40;99.90;;;;;;4897340;29;20040;-64
2022/01/29 09:53:25;;;;;;;43.00;20.25;;;5.50;99.90;;;;;;4903425;29;20516;-64
2022/01/29 09:55:51;;;;;;;46.35;19.42;;;5.60;99.90;;;;;;4910725;29;20024;-64
2022/01/29 09:58:16;;;;;;;47.40;20.63;;;5.60;99.90;;;;;;4902327;29;20138;-64
2022/01/29 10:00:42;;;;;;;41.78;18.55;;;5.70;99.90;;;;;;4905769;29;20492;-64
2022/01/29 10:03:07;;;;;;;43.92;19.42;;;5.70;99.90;;;;;;4903225;29;20563;-64
2022/01/29 10:05:33;;;;;;;44.22;18.80;;;5.80;99.90;;;;;;4908463;29;20741;-64
2022/01/29 10:07:58;;;;;;;41.95;19.48;;;5.80;99.90;;;;;;4908359;29;20028;-64
2022/01/29 10:10:24;;;;;;;40.92;20.58;;;5.80;99.90;;;;;;4900023;29;20405;-64
2022/01/29 10:12:49;;;;;;;47.45;19.52;;;5.90;99.90;;;;;;4902569;29;20127;-64
2022/01/29 10:15:15;;;;;;;42.28;19.52;;;6.00;99.90;;;;;;4902975;29;20055;-63
2022/01/29 10:17:40;;;;;;;40.30;19.98;;;6.00;99.90;;;;;;4902126;29;20120;-64
2022/01/29 10:20:06;;;;;;;45.72;20.55;;;6.10;99.90;;;;;;4900831;29;20031;-64
2022/01/29 10:22:31;;;;;;;41.72;18.80;;;6.10;99.90;;;;;;4905647;29;20044;-65
2022/01/29 10:24:57;;;;;;;46.17;19.95;;;6.10;99.90;;;;;;4907464;29;20040;-65
2022/01/29 10:27:22;;;;;;;37.90;18.48;;;6.20;99.90;;;;;;4903310;29;20283;-63
2022/01/29 10:29:48;;;;;;;33.75;17.70;;;6.20;99.90;;;;;;4902121;29;20028;-63
2022/01/29 10:32:13;;;;;;;37.05;18.13;;;6.30;99.90;;;;;;4903616;29;20024;-65
2022/01/29 10:34:39;;;;;;;35.28;17.23;;;6.30;99.90;;;;;;4902037;29;20728;-64
2022/01/29 10:37:04;;;;;;;29.35;16.83;;;6.40;99.90;;;;;;4901892;29;20032;-65
2022/01/29 10:39:30;;;;;;;29.10;14.75;;;6.40;99.90;;;;;;4907139;29;20040;-66
2022/01/29 10:41:55;;;;;;;27.85;15.32;;;6.50;99.90;;;;;;4900607;29;20071;-65
2022/01/29 10:44:22;;;;;;;27.02;14.73;;;6.60;99.90;;;;;;4905848;29;20084;-65
2022/01/29 10:46:48;;;;;;;25.85;13.98;;;6.60;99.90;;;;;;4904700;29;20817;-65
2022/01/29 10:49:13;;;;;;;24.13;14.30;;;6.70;99.90;;;;;;4901252;29;20036;-65
2022/01/29 10:51:39;;;;;;;25.13;13.68;;;6.70;99.90;;;;;;4903113;29;20555;-65
2022/01/29 10:54:04;;;;;;;26.98;14.70;;;6.70;99.90;;;;;;4905184;29;20028;-65
2022/01/29 10:56:30;;;;;;;23.60;13.85;;;6.80;99.90;;;;;;4903575;29;20404;-65
2022/01/29 10:58:55;;;;;;;26.30;13.50;;;6.80;99.90;;;;;;4903973;29;20036;-65
2022/01/29 11:01:24;;;;;;;19.20;13.13;;;6.80;99.90;;;;;;4905514;29;20032;-65
2022/01/29 11:03:53;;;;;;;23.17;13.52;;;6.80;99.90;;;;;;4905877;29;20559;-65
2022/01/29 11:06:20;;;;;;;23.05;14.13;;;6.80;99.90;;;;;;4887965;29;20020;-64
2022/01/29 11:08:46;;;;;;;24.15;12.57;;;6.90;99.90;;;;;;4894065;29;20032;-65
2022/01/29 11:11:11;;;;;;;22.90;12.60;;;6.90;99.90;;;;;;4901051;29;20035;-68
